• Join FlightAware (Why Join?)
  • Login
  • US Flag 
03:48PM EDT


 

Airport Tracker/Info


-or-


 

Live Flight TrackerFlight Track Log ✈ EGF4383 ✈ 01-May-2013 ✈ KCHO - KORD

Flight Track Log - Related Links

Times and Time Zones

All times are in EDT time to prevent confusion due to time zone crossing. See the EGF4383 flight status page for this flight to view local times or setup timezone preferences in your user account.

Time Position Orientation Groundspeed Altitude Reporting Facility
EDT Latitude Longitude Course Direction KTS MPH feet Rate Location/Type
05:01PM 38.1667 -78.4389 294° West 158 182 1,900  Level Washington Center
05:02PM 38.2150 -78.4169 20° North 217 250 4,000 2,160 Climbing Washington Center
05:03PM 38.2167 -78.6764 270° West  Level FlightAware Approximate
05:03PM 38.2772 -78.4378 345° North 223 257 6,300  Level Washington Center
05:04PM 38.2535 -78.7915 299° West  Level FlightAware Approximate
05:04PM 38.3294 -78.5139 311° West 218 251 9,000  Level Washington Center
05:05PM 38.3012 -78.9028 298° West  Level FlightAware Approximate
05:05PM 38.3925 -78.5772 322° Northwest 266 306 11,300  Level Washington Center
05:06PM 38.3479 -79.0148 298° West  Level FlightAware Approximate
05:06PM 38.4594 -78.6542 318° Northwest 299 344 13,300  Level Washington Center
05:07PM 38.3932 -79.1277 294° West  Level FlightAware Approximate
05:07PM 38.5239 -78.7444 312° West 321 369 15,400  Level Washington Center
05:08PM 38.5564 -78.8600 290° West 339 390 17,100 1,620 Climbing Washington Center
05:09PM 38.5864 -78.9808 288° West 344 396 18,700 1,980 Climbing Washington Center
05:10PM 38.6203 -79.1019 290° West 354 407 21,000 1,980 Climbing Washington Center
05:11PM 38.6558 -79.2392 288° West 354 407 22,700 1,500 Climbing Washington Center
05:12PM 38.6894 -79.3658 289° West 373 429 24,100 1,380 Climbing Washington Center
05:13PM 38.7247 -79.4981 289° West 380 437 25,500 960 Climbing Washington Center
05:14PM 38.7542 -79.6169 288° West 391 450 26,000 240 Climbing Washington Center
05:15PM 38.7933 -79.7600 289° West 403 464 26,000 60 Level Washington Center
05:16PM 38.8297 -79.9089 287° West 424 488 26,200 540 Climbing Washington Center
05:17PM 38.8700 -80.0578 289° West 437 503 27,100 960 Climbing Washington Center
05:18PM 38.8911 -80.1447 287° West 434 499 27,800 960 Climbing Indianapolis Center
05:19PM 38.9292 -80.2908 289° West 432 497 28,700 900 Climbing Indianapolis Center
05:20PM 38.9717 -80.4339 291° West 432 497 29,700 720 Climbing Indianapolis Center
05:21PM 39.0481 -80.5931 302° West 439 505 30,200 480 Climbing Indianapolis Center
05:22PM 39.1108 -80.7303 301° West 444 511 30,800 600 Climbing Indianapolis Center
05:23PM 39.1728 -80.8717 300° West 453 521 31,500 900 Climbing Indianapolis Center
05:25PM 39.2986 -81.1517 300° West 453 521 33,600 1,020 Climbing Indianapolis Center
05:26PM 39.3606 -81.2903 300° West 449 517 34,800 1,140 Climbing Indianapolis Center
05:27PM 39.4322 -81.4533 300° West 437 503 36,000 540 Climbing Indianapolis Center
05:28PM 39.4903 -81.5853 300° West 428 493 36,000  Level Indianapolis Center
05:29PM 39.5483 -81.7172 300° West 423 487 36,000  Level Indianapolis Center
05:30PM 39.6069 -81.8517 300° West 427 491 36,000  Level Indianapolis Center
05:31PM 39.6664 -81.9886 299° West 434 499 36,000  Level Indianapolis Center
05:32PM 39.7297 -82.1353 299° West 441 507 36,000  Level Indianapolis Center
05:33PM 39.7894 -82.2747 299° West 440 506 36,000  Level Indianapolis Center
05:35PM 39.8406 -82.3946 299° West  Level FlightAware Approximate
05:36PM 39.9186 -82.5761 299° West 438 504 36,000  Level Indianapolis Center
05:37PM 39.9781 -82.7161 299° West 440 506 36,000  Level Indianapolis Center
05:38PM 40.0364 -82.8561 299° West 437 503 36,000  Level Indianapolis Center
05:39PM 40.0947 -82.9969 298° West 438 504 36,000  Level Indianapolis Center
05:40PM 40.1539 -83.1353 299° West 437 503 36,000  Level Indianapolis Center
05:41PM 40.2219 -83.3006 298° West 442 509 36,000  Level Indianapolis Center
05:42PM 40.2794 -83.4411 298° West 438 504 36,000  Level Indianapolis Center
05:43PM 40.3386 -83.5836 299° West 443 510 36,000  Level Indianapolis Center
05:44PM 40.3961 -83.7267 298° West 443 510 36,000  Level Indianapolis Center
05:45PM 40.4556 -83.8689 299° West 443 510 36,000  Level Indianapolis Center
05:46PM 40.5144 -84.0128 298° West 445 512 36,000  Level Indianapolis Center
05:47PM 40.5817 -84.1822 298° West 446 513 36,000 -240 Level Indianapolis Center
05:48PM 40.6414 -84.3278 298° West 448 516 35,500 -720 Descending Indianapolis Center
05:49PM 40.6667 -84.3947 296° West 446 513 34,900 -960 Descending Chicago Center
05:50PM 40.7339 -84.5625 298° West 434 499 34,000 -480 Descending Chicago Center
05:51PM 40.7903 -84.7064 297° West 438 504 34,000 -180 Level Chicago Center
05:52PM 40.8492 -84.8517 298° West 445 512 33,700 -720 Descending Chicago Center
05:53PM 40.9042 -84.9964 297° West 444 511 32,600 -1,020 Descending Chicago Center
05:54PM 40.9600 -85.1369 298° West 435 501 31,600 -1,020 Descending Chicago Center
05:55PM 41.0175 -85.2839 297° West 442 509 30,600 -1,020 Descending Chicago Center
05:56PM 41.0700 -85.4344 295° West 448 516 29,600 -1,440 Descending Chicago Center
05:57PM 41.1333 -85.6125 295° West 445 512 27,700 -1,680 Descending Chicago Center
05:58PM 41.1847 -85.7558 296° West 430 495 26,200 -1,320 Descending Chicago Center
05:59PM 41.2367 -85.9036 295° West 441 507 25,000 -600 Descending Chicago Center
06:00PM 41.2919 -86.0633 295° West 464 534 25,000 -240 Level Chicago Center
06:01PM 41.3308 -86.2236 288° West 460 529 24,600 -1,260 Descending Chicago Center
06:02PM 41.3700 -86.3817 288° West 448 516 22,500 -2,160 Descending Chicago Center
06:03PM 41.4139 -86.5592 288° West 425 489 20,100 -2,160 Descending Chicago Center
06:04PM 41.4494 -86.7017 288° West 411 473 18,100 -1,800 Descending Chicago Center
06:05PM 41.4831 -86.8364 288° West 403 464 16,400 -1,800 Descending Chicago Center
06:06PM 41.5169 -86.9728 288° West 392 451 14,500 -2,100 Descending Chicago Center
06:07PM 41.5550 -87.1300 288° West 377 434 12,100 -1,740 Descending Chicago Center
06:08PM 41.5667 -87.2000 283° West 355 409 11,700 -1,200 Descending Chicago TRACON
06:09PM 41.6333 -87.3167 307° West 372 428 10,200 -1,200 Descending Chicago TRACON
06:09PM 41.6503 -87.3603 297° West 372 428 10,000 -180 Descending Chicago Center
06:10PM 41.7139 -87.4611 310° West 362 417 10,000  Level Chicago Center
06:11PM 41.7722 -87.5644 307° West 356 410 10,000 -420 Level Chicago Center
06:12PM 41.8283 -87.6797 303° West 305 351 9,200 -1,200 Descending Chicago Center
06:13PM 41.8500 -87.7167 308° West 282 325 8,200 -1,500 Descending Chicago TRACON
06:14PM 41.8667 -87.8167 283° West 277 319 7,000 -600 Descending Chicago TRACON
06:15PM 41.9000 -87.9333 291° West 286 329 7,000  Level Chicago TRACON
06:16PM 41.9333 -88.0000 304° West 304 350 7,000 -300 Level Chicago TRACON
06:17PM 41.9833 -88.0667 315° West 266 306 6,500 -1,200 Descending Chicago TRACON
06:18PM 42.0500 -88.1333 323° Northwest 243 280 4,800 -1,740 Descending Chicago TRACON